Terminal Aerodrome Forecast
Issued by NWS Billings, MT

Home | Current Version | Previous Version | Text Only | Print | Product List | Glossary On
Versions: 1 2 3 4 5 6 7 8 9 10 11 12 13 14 15 16 17 18 19 20 21 22 23 24
000
FTUS45 KBYZ 281738
TAFBIL
TAF
KBIL 281738Z 2818/2918 04008KT P6SM SCT015 OVC025
     FM282100 VRB06KT P6SM VCSH BKN040
     FM290200 24005KT P6SM BKN060
     FM290900 21008KT P6SM VCFG FEW003 BKN080
     FM291500 24010KT P6SM SCT080=

USA.gov is the U.S. government's official web portal to all federal, state and local government web resources and services.